Time;durP1;ratioP1;P1;durP2;ratioP2;P2;SDS_P1;SDS_P2;PMS_P1;PMS_P2;Temp;Humidity;BMP_temperature;BMP_pressure;BME280_temperature;BME280_humidity;BME280_pressure;Samples;Min_cycle;Max_cycle;Signal;HPM_P1;HPM_P2
2021/10/31 00:00:59;;;;;;;21.40;12.15;;;;;;;10.64;57.41;100409.22;4964932;28;20042;-65
2021/10/31 00:03:25;;;;;;;23.25;11.95;;;;;;;10.47;57.90;100411.78;4977531;28;20455;-65
2021/10/31 00:05:52;;;;;;;16.52;11.02;;;;;;;10.61;57.50;100425.03;4980546;28;20042;-65
2021/10/31 00:08:18;;;;;;;16.88;12.07;;;;;;;10.73;57.47;100420.19;4979313;28;20034;-65
2021/10/31 00:10:46;;;;;;;17.10;11.43;;;;;;;10.70;57.25;100423.75;4982669;28;20200;-66
2021/10/31 00:13:12;;;;;;;19.83;12.57;;;;;;;10.35;58.53;100422.81;4938771;28;20050;-66
2021/10/31 00:15:40;;;;;;;21.50;11.48;;;;;;;10.19;58.68;100428.75;4978404;28;20069;-65
2021/10/31 00:18:05;;;;;;;17.67;11.23;;;;;;;10.33;58.20;100428.13;4967182;28;20034;-66
2021/10/31 00:20:36;;;;;;;17.98;11.50;;;;;;;10.58;56.90;100425.19;4980265;28;20113;-66
2021/10/31 00:23:01;;;;;;;17.88;11.85;;;;;;;10.53;56.83;100427.19;4979487;28;20388;-65
2021/10/31 00:25:27;;;;;;;17.52;11.55;;;;;;;9.60;60.17;100434.81;4978586;28;20041;-66
2021/10/31 00:27:52;;;;;;;17.95;10.90;;;;;;;10.07;58.46;100429.28;4965092;28;20038;-65
2021/10/31 00:30:18;;;;;;;17.75;11.70;;;;;;;9.98;58.82;100440.97;4978470;28;20070;-65
2021/10/31 00:32:43;;;;;;;16.90;10.43;;;;;;;10.08;58.73;100445.78;4967801;28;20340;-65
2021/10/31 00:35:09;;;;;;;14.48;10.38;;;;;;;10.41;57.38;100441.69;4982355;28;20042;-65
2021/10/31 00:37:35;;;;;;;18.20;10.35;;;;;;;10.45;57.08;100439.75;4984449;28;20030;-65
2021/10/31 00:40:00;;;;;;;16.35;10.73;;;;;;;10.36;57.34;100446.25;4984002;28;20399;-65
2021/10/31 00:42:28;;;;;;;17.15;10.32;;;;;;;10.27;57.82;100445.81;4954022;28;20523;-63
2021/10/31 00:44:54;;;;;;;16.10;9.77;;;;;;;10.57;57.34;100449.66;4962919;28;20248;-64
2021/10/31 00:47:20;;;;;;;13.93;8.38;;;;;;;10.59;56.94;100454.78;4962079;28;20420;-64
2021/10/31 00:49:45;;;;;;;16.63;9.82;;;;;;;10.68;57.07;100450.88;4965374;28;20050;-65
2021/10/31 00:52:16;;;;;;;18.70;9.15;;;;;;;10.65;57.05;100454.50;4962299;28;20030;-67
2021/10/31 00:54:44;;;;;;;15.20;9.53;;;;;;;10.67;57.07;100464.91;4965058;28;20501;-66
2021/10/31 00:57:11;;;;;;;18.85;10.50;;;;;;;10.53;57.88;100470.75;4961760;28;20047;-69
2021/10/31 00:59:36;;;;;;;18.05;10.02;;;;;;;10.43;57.91;100468.56;4966400;28;20030;-67
2021/10/31 01:02:07;;;;;;;16.60;10.55;;;;;;;10.55;57.84;100469.78;4962422;28;20046;-67
2021/10/31 01:04:33;;;;;;;21.20;9.90;;;;;;;10.33;58.22;100466.44;4963695;28;20113;-66
2021/10/31 01:07:06;;;;;;;15.85;10.20;;;;;;;10.51;57.88;100472.59;4960953;28;20313;-67
2021/10/31 01:09:46;;;;;;;14.45;8.73;;;;;;;10.79;57.01;100475.63;4965449;28;20045;-66
2021/10/31 01:12:30;;;;;;;16.60;9.20;;;;;;;10.57;57.92;100481.00;4962547;28;20395;-66
2021/10/31 01:15:28;;;;;;;17.52;9.93;;;;;;;10.56;58.23;100479.28;4966128;28;20081;-67
2021/10/31 01:17:59;;;;;;;18.15;9.80;;;;;;;10.55;57.92;100479.38;4977659;28;20050;-67
2021/10/31 01:20:25;;;;;;;14.45;9.27;;;;;;;10.43;58.08;100479.00;4956007;28;20526;-65
2021/10/31 01:22:56;;;;;;;18.00;9.50;;;;;;;10.17;58.99;100474.13;4963603;28;20038;-67
2021/10/31 01:25:24;;;;;;;17.60;8.70;;;;;;;10.02;59.43;100478.25;4962827;28;20093;-67
2021/10/31 01:28:11;;;;;;;17.67;9.82;;;;;;;10.27;58.34;100475.41;4964123;28;20027;-67
2021/10/31 01:30:57;;;;;;;17.27;8.30;;;;;;;10.53;56.84;100469.00;4947752;28;20346;-66
2021/10/31 01:33:39;;;;;;;14.45;8.60;;;;;;;10.37;57.41;100478.44;4962770;28;20031;-67
2021/10/31 01:36:15;;;;;;;14.18;8.00;;;;;;;10.31;57.73;100474.34;4962427;28;20092;-67
2021/10/31 01:39:06;;;;;;;15.82;8.75;;;;;;;10.43;56.64;100471.16;4963462;28;20058;-67
2021/10/31 01:41:46;;;;;;;15.70;8.45;;;;;;;10.28;57.31;100489.31;4971140;28;20129;-66
2021/10/31 01:44:36;;;;;;;13.48;9.52;;;;;;;10.19;57.85;100491.44;4981696;28;20046;-65
2021/10/31 01:47:27;;;;;;;23.83;10.15;;;;;;;10.11;57.66;100483.06;4982944;28;20065;-67
2021/10/31 01:49:59;;;;;;;19.30;8.27;;;;;;;9.99;58.72;100494.03;4983336;28;20480;-66
2021/10/31 01:52:39;;;;;;;13.75;9.35;;;;;;;10.31;57.30;100497.03;4981398;28;20058;-67
2021/10/31 01:55:14;;;;;;;24.45;9.73;;;;;;;10.41;57.07;100491.31;4981491;28;20026;-67
2021/10/31 01:57:44;;;;;;;19.88;8.98;;;;;;;10.29;57.04;100496.25;4961952;28;20428;-67
2021/10/31 02:00:13;;;;;;;12.25;8.63;;;;;;;10.29;57.04;100494.47;4961239;28;20124;-63
2021/10/31 02:02:42;;;;;;;18.50;9.23;;;;;;;10.11;57.60;100505.75;4961874;28;20039;-64
2021/10/31 02:05:16;;;;;;;11.20;8.30;;;;;;;10.24;57.23;100503.44;4962615;28;20039;-65
2021/10/31 02:07:48;;;;;;;16.20;8.77;;;;;;;10.14;57.70;100513.44;4935162;28;20532;-64
2021/10/31 02:10:15;;;;;;;17.42;8.55;;;;;;;9.70;58.39;100510.91;4955626;28;20078;-64
2021/10/31 02:12:42;;;;;;;12.77;7.85;;;;;;;9.87;58.23;100508.47;4963208;28;20026;-65
2021/10/31 02:15:13;;;;;;;13.20;7.55;;;;;;;10.16;56.90;100511.59;4962166;28;20327;-64
2021/10/31 02:17:41;;;;;;;15.75;9.35;;;;;;;10.09;57.42;100512.78;4981661;28;20112;-64
2021/10/31 02:20:07;;;;;;;13.85;8.07;;;;;;;10.06;56.95;100516.38;4981398;28;20035;-63
2021/10/31 02:22:35;;;;;;;12.95;7.95;;;;;;;10.11;56.71;100513.56;4981796;28;20536;-63
2021/10/31 02:25:01;;;;;;;19.95;8.88;;;;;;;10.07;56.44;100515.47;4982787;28;20030;-64
2021/10/31 02:27:32;;;;;;;14.10;7.75;;;;;;;10.05;56.18;100514.66;4944666;28;20038;-64
2021/10/31 02:29:59;;;;;;;11.23;6.97;;;;;;;9.97;56.13;100511.56;4964006;28;20038;-64
2021/10/31 02:32:28;;;;;;;17.17;7.55;;;;;;;9.71;57.11;100510.88;4960454;28;20042;-63
2021/10/31 02:34:54;;;;;;;13.70;7.80;;;;;;;9.84;56.70;100510.41;4963336;28;20031;-64
2021/10/31 02:37:21;;;;;;;11.15;7.07;;;;;;;9.73;56.57;100511.66;4953420;28;20039;-64
2021/10/31 02:39:53;;;;;;;10.90;7.10;;;;;;;9.64;57.03;100519.88;4950153;28;20113;-65
2021/10/31 02:42:18;;;;;;;;;;;;;;;9.49;57.31;100525.72;4962610;28;20590;-64
2021/10/31 02:44:44;;;;;;;18.60;8.15;;;;;;;9.58;57.40;100530.56;4978699;28;19921;-66
2021/10/31 02:47:22;;;;;;;17.42;8.02;;;;;;;9.70;57.17;100543.13;4938347;28;20043;-66
2021/10/31 02:49:48;;;;;;;15.77;8.30;;;;;;;9.54;57.76;100544.63;4961453;28;20484;-65
2021/10/31 02:52:26;;;;;;;17.58;8.63;;;;;;;9.38;58.28;100545.25;4959138;28;20031;-65
2021/10/31 02:55:09;;;;;;;27.73;11.30;;;;;;;9.12;59.43;100545.44;4960795;28;20492;-67
2021/10/31 02:57:55;;;;;;;19.25;9.35;;;;;;;9.57;58.42;100536.69;4960095;28;20046;-64
2021/10/31 03:00:22;;;;;;;20.10;10.35;;;;;;;9.69;58.07;100553.59;4961461;28;20109;-66
2021/10/31 03:02:51;;;;;;;19.33;11.80;;;;;;;8.84;60.57;100549.13;4962432;28;20031;-66
2021/10/31 03:05:17;;;;;;;21.10;12.23;;;;;;;9.55;59.04;100551.56;4961228;28;20566;-66
2021/10/31 03:07:45;;;;;;;22.77;10.63;;;;;;;9.46;58.49;100538.91;4963419;28;20145;-66
2021/10/31 03:10:15;;;;;;;26.85;11.80;;;;;;;9.77;58.06;100549.75;4962572;28;20456;-67
2021/10/31 03:12:46;;;;;;;18.55;10.65;;;;;;;9.95;57.23;100555.16;4968295;28;20504;-66
2021/10/31 03:15:16;;;;;;;28.63;11.95;;;;;;;9.57;58.21;100549.75;4961895;28;20382;-67
2021/10/31 03:17:42;;;;;;;19.15;11.18;;;;;;;8.88;60.22;100555.06;4968755;28;20030;-67
2021/10/31 03:20:08;;;;;;;22.90;11.95;;;;;;;9.28;59.51;100559.59;4962652;28;20901;-67
2021/10/31 03:22:35;;;;;;;23.80;12.20;;;;;;;9.39;58.60;100562.63;4959716;28;20057;-67
2021/10/31 03:25:00;;;;;;;25.80;11.98;;;;;;;9.76;57.82;100550.66;4960152;28;20035;-67
2021/10/31 03:27:26;;;;;;;21.95;11.35;;;;;;;9.97;56.80;100551.56;4943978;28;20575;-67
2021/10/31 03:29:52;;;;;;;27.65;13.07;;;;;;;9.15;59.82;100553.16;4952036;28;20039;-67
2021/10/31 03:32:18;;;;;;;24.45;12.55;;;;;;;9.12;59.83;100550.66;4961272;28;20606;-66
2021/10/31 03:34:44;;;;;;;24.30;12.07;;;;;;;9.62;57.91;100549.56;4962684;28;20750;-67
2021/10/31 03:37:10;;;;;;;23.02;12.30;;;;;;;9.92;56.90;100557.88;4944685;28;22282;-68
2021/10/31 03:39:35;;;;;;;23.80;12.07;;;;;;;9.96;56.92;100551.63;4962386;28;20060;-67
2021/10/31 03:42:01;;;;;;;26.48;12.93;;;;;;;9.60;57.90;100560.03;4958844;28;20042;-65
2021/10/31 03:44:28;;;;;;;27.70;13.23;;;;;;;9.68;58.03;100563.19;4951538;28;20073;-63
2021/10/31 03:46:54;;;;;;;24.52;13.50;;;;;;;9.90;57.02;100562.31;4960899;28;20038;-64
2021/10/31 03:49:19;;;;;;;26.05;12.75;;;;;;;10.09;56.61;100571.06;4961647;28;20495;-65
2021/10/31 03:51:47;;;;;;;28.88;14.88;;;;;;;9.79;57.07;100575.81;4952352;28;20146;-65
2021/10/31 03:54:12;;;;;;;26.90;14.95;;;;;;;9.60;58.03;100580.91;4960476;28;20106;-66
2021/10/31 03:56:38;;;;;;;29.63;13.77;;;;;;;9.38;58.58;100584.38;4959409;28;20046;-66
2021/10/31 03:59:06;;;;;;;26.08;13.48;;;;;;;9.91;56.77;100583.16;4959594;28;20039;-66
2021/10/31 04:01:33;;;;;;;25.40;14.32;;;;;;;9.91;56.88;100574.47;4941191;28;20045;-67
2021/10/31 04:04:02;;;;;;;26.30;14.15;;;;;;;9.98;56.07;100575.91;4961117;28;20039;-67
2021/10/31 04:06:32;;;;;;;22.55;13.05;;;;;;;10.05;56.05;100579.94;4964313;28;20039;-68
2021/10/31 04:08:57;;;;;;;30.17;14.82;;;;;;;9.44;58.07;100585.06;4964381;28;20174;-66
2021/10/31 04:11:26;;;;;;;32.15;15.13;;;;;;;9.97;56.33;100592.50;4963942;28;20125;-67
2021/10/31 04:13:51;;;;;;;25.42;14.73;;;;;;;9.77;56.94;100591.53;4971916;28;20491;-66
2021/10/31 04:16:17;;;;;;;27.95;15.30;;;;;;;10.01;56.16;100587.09;4965849;28;20035;-65
2021/10/31 04:18:42;;;;;;;25.67;12.38;;;;;;;9.84;56.43;100588.72;4963480;28;20408;-65
2021/10/31 04:21:08;;;;;;;27.00;15.20;;;;;;;9.90;56.41;100588.41;4964669;28;20042;-65
2021/10/31 04:23:33;;;;;;;36.13;15.30;;;;;;;9.98;56.13;100581.13;4964372;28;20034;-65
2021/10/31 04:25:58;;;;;;;37.42;14.88;;;;;;;9.59;57.04;100594.91;4962275;28;20214;-65
2021/10/31 04:28:24;;;;;;;28.48;14.68;;;;;;;9.82;56.65;100586.16;4963215;28;20031;-64
2021/10/31 04:30:52;;;;;;;32.42;14.43;;;;;;;9.85;56.33;100598.22;4963043;28;20069;-64
2021/10/31 04:33:18;;;;;;;28.27;15.77;;;;;;;10.21;55.11;100598.41;4964388;28;20303;-64
2021/10/31 04:35:43;;;;;;;28.52;14.73;;;;;;;9.77;56.65;100590.69;4964901;28;20512;-64
2021/10/31 04:38:15;;;;;;;26.25;14.60;;;;;;;9.84;56.56;100593.94;4965052;28;20122;-66
2021/10/31 04:40:43;;;;;;;33.95;16.10;;;;;;;10.07;55.73;100596.41;4964304;28;20174;-66
2021/10/31 04:43:12;;;;;;;26.35;15.00;;;;;;;9.98;55.86;100608.09;4964561;28;20045;-66
2021/10/31 04:45:43;;;;;;;25.83;14.68;;;;;;;9.74;56.32;100604.69;4962771;28;20043;-65
2021/10/31 04:48:12;;;;;;;33.15;15.38;;;;;;;10.13;55.12;100603.16;4962816;28;20042;-65
2021/10/31 04:50:39;;;;;;;31.13;16.42;;;;;;;9.85;55.88;100606.06;4961552;28;20042;-66
2021/10/31 04:53:07;;;;;;;26.48;14.82;;;;;;;10.07;55.32;100611.22;4964479;28;20043;-65
2021/10/31 04:55:33;;;;;;;34.40;15.77;;;;;;;10.12;55.45;100611.88;4962202;28;20122;-66
2021/10/31 04:58:04;;;;;;;35.90;17.38;;;;;;;10.19;54.92;100611.56;4962948;28;20054;-66
2021/10/31 05:00:30;;;;;;;29.88;16.73;;;;;;;10.03;55.53;100600.06;4964267;28;20038;-67
2021/10/31 05:02:56;;;;;;;31.77;16.05;;;;;;;9.87;56.13;100610.28;4963146;28;20026;-66
2021/10/31 05:05:23;;;;;;;31.90;15.60;;;;;;;10.14;55.38;100617.88;4963366;28;20035;-67
2021/10/31 05:07:52;;;;;;;33.45;15.48;;;;;;;9.90;55.97;100617.13;4964214;28;20500;-67
2021/10/31 05:10:25;;;;;;;25.60;13.90;;;;;;;9.90;55.79;100624.97;4963038;28;20062;-68
2021/10/31 05:12:51;;;;;;;30.05;15.20;;;;;;;10.07;55.11;100609.47;4978205;28;20608;-66
2021/10/31 05:15:17;;;;;;;28.13;15.63;;;;;;;10.02;55.53;100603.59;4962645;28;20066;-67
2021/10/31 05:17:43;;;;;;;29.60;16.00;;;;;;;10.10;55.32;100603.25;4979604;28;20463;-67
2021/10/31 05:20:11;;;;;;;29.30;15.52;;;;;;;10.02;55.52;100599.22;4963465;28;20138;-64
2021/10/31 05:22:37;;;;;;;26.52;14.38;;;;;;;10.12;55.28;100610.09;4963479;28;20061;-67
2021/10/31 05:25:04;;;;;;;27.88;14.27;;;;;;;10.08;55.11;100607.69;4964587;28;20030;-65
2021/10/31 05:27:32;;;;;;;34.35;15.05;;;;;;;10.10;55.13;100611.97;4953935;28;20074;-66
2021/10/31 05:29:57;;;;;;;30.20;14.20;;;;;;;10.19;54.75;100606.34;4964416;28;20479;-66
2021/10/31 05:32:24;;;;;;;25.77;15.02;;;;;;;10.09;55.44;100599.81;4964707;28;20041;-66
2021/10/31 05:34:50;;;;;;;29.42;14.13;;;;;;;9.90;55.80;100599.75;4973966;28;20458;-67
2021/10/31 05:37:16;;;;;;;22.60;13.18;;;;;;;10.13;54.91;100605.75;4965372;28;20153;-67
2021/10/31 05:39:41;;;;;;;25.10;13.88;;;;;;;10.22;54.42;100603.59;4962140;28;20038;-65
2021/10/31 05:42:07;;;;;;;26.52;13.90;;;;;;;10.08;55.11;100607.69;4945523;28;20046;-65
2021/10/31 05:44:33;;;;;;;26.13;13.52;;;;;;;10.09;54.98;100593.75;4964279;28;20035;-65
2021/10/31 05:46:59;;;;;;;34.13;16.08;;;;;;;10.01;55.33;100596.66;4944271;28;20042;-66
2021/10/31 05:49:25;;;;;;;28.35;14.48;;;;;;;9.93;55.29;100593.53;4964381;28;20246;-65
2021/10/31 05:51:50;;;;;;;26.45;14.15;;;;;;;9.60;56.54;100601.78;4945663;28;20412;-64
2021/10/31 05:54:16;;;;;;;33.47;15.73;;;;;;;9.49;56.05;100599.59;4961365;28;20440;-65
2021/10/31 05:56:41;;;;;;;29.75;15.48;;;;;;;9.43;56.65;100602.44;4962009;28;20038;-64
2021/10/31 05:59:09;;;;;;;30.33;15.05;;;;;;;9.57;56.20;100602.78;4962255;28;20059;-65
2021/10/31 06:01:36;;;;;;;28.45;15.10;;;;;;;9.81;55.70;100592.25;4961725;28;20531;-65
2021/10/31 06:04:02;;;;;;;31.10;15.23;;;;;;;9.31;56.84;100595.97;4963081;28;20027;-64
2021/10/31 06:06:27;;;;;;;27.67;14.73;;;;;;;9.76;55.60;100594.19;4959287;28;20506;-64
2021/10/31 06:08:53;;;;;;;37.38;14.85;;;;;;;9.59;55.86;100594.91;4963373;28;20034;-64
2021/10/31 06:11:19;;;;;;;34.72;15.32;;;;;;;9.65;55.83;100599.84;4961028;28;20039;-64
2021/10/31 06:13:45;;;;;;;30.13;14.30;;;;;;;9.76;55.32;100592.41;4961368;28;20507;-65
2021/10/31 06:16:11;;;;;;;26.85;14.45;;;;;;;9.69;55.59;100598.81;4961063;28;20051;-65
2021/10/31 06:18:36;;;;;;;27.15;14.68;;;;;;;9.96;54.41;100609.06;4961381;28;20042;-65
2021/10/31 06:21:03;;;;;;;28.67;14.10;;;;;;;9.76;55.48;100608.09;4960873;28;20066;-66
2021/10/31 06:23:29;;;;;;;28.23;14.75;;;;;;;9.35;56.18;100613.22;4961180;28;20045;-65
2021/10/31 06:25:54;;;;;;;27.33;13.52;;;;;;;9.93;54.57;100607.44;4959516;28;20046;-65
2021/10/31 06:28:20;;;;;;;29.70;14.43;;;;;;;9.81;55.05;100605.31;4961815;28;20052;-65
2021/10/31 06:30:48;;;;;;;34.00;15.65;;;;;;;9.93;54.65;100606.59;4957140;28;20101;-65
2021/10/31 06:33:13;;;;;;;28.52;13.75;;;;;;;9.82;55.12;100614.84;4972434;28;20035;-67
2021/10/31 06:35:39;;;;;;;33.45;14.88;;;;;;;9.95;54.48;100607.38;4962437;28;20038;-67
2021/10/31 06:38:05;;;;;;;32.70;13.70;;;;;;;9.96;54.66;100619.50;4962511;28;20202;-68
2021/10/31 06:40:31;;;;;;;27.98;14.25;;;;;;;10.04;54.14;100617.44;4961458;28;20423;-69
2021/10/31 06:42:57;;;;;;;25.13;13.07;;;;;;;10.02;54.46;100620.09;4963705;28;20043;-67
2021/10/31 06:45:22;;;;;;;29.83;13.40;;;;;;;10.01;54.62;100617.53;4961172;28;20062;-69
2021/10/31 06:47:48;;;;;;;28.98;15.25;;;;;;;9.88;54.76;100616.34;4962657;28;20042;-65
2021/10/31 06:50:13;;;;;;;31.35;15.02;;;;;;;9.55;55.49;100619.41;4965276;28;20536;-64
2021/10/31 06:52:39;;;;;;;28.20;14.48;;;;;;;9.70;55.39;100625.75;4961248;28;20046;-65
2021/10/31 06:55:08;;;;;;;25.63;12.23;;;;;;;9.96;54.62;100619.50;4961962;28;20081;-64
2021/10/31 06:57:34;;;;;;;31.85;14.05;;;;;;;9.84;54.80;100622.63;4968283;28;20117;-67
2021/10/31 07:00:03;;;;;;;28.58;13.23;;;;;;;9.88;54.52;100619.84;4961694;28;20035;-65
2021/10/31 07:02:31;;;;;;;27.38;13.90;;;;;;;9.95;54.13;100621.28;4963622;28;20030;-65
2021/10/31 07:04:56;;;;;;;19.48;12.85;;;;;;;9.90;54.30;100612.78;4976542;28;20042;-65
2021/10/31 07:07:25;;;;;;;24.50;13.02;;;;;;;9.62;54.63;100613.03;4960559;28;20062;-65
2021/10/31 07:09:50;;;;;;;24.80;11.75;;;;;;;9.74;54.35;100609.06;4963166;28;20039;-65
2021/10/31 07:12:18;;;;;;;29.35;12.13;;;;;;;9.92;54.15;100610.09;4960594;28;20038;-64
2021/10/31 07:14:46;;;;;;;28.10;13.20;;;;;;;9.93;53.71;100598.75;4962654;28;20035;-65
2021/10/31 07:17:12;;;;;;;20.50;12.07;;;;;;;9.93;54.25;100604.81;4961579;28;20125;-66
2021/10/31 07:19:37;;;;;;;27.88;11.77;;;;;;;10.09;53.59;100607.63;4961156;28;20404;-65
2021/10/31 07:22:03;;;;;;;29.10;13.25;;;;;;;10.08;53.39;100600.72;4960477;28;20535;-66
2021/10/31 07:24:28;;;;;;;21.05;12.23;;;;;;;10.09;53.37;100599.81;4961602;28;20575;-63
2021/10/31 07:26:54;;;;;;;21.77;12.02;;;;;;;9.94;53.90;100590.84;4960050;28;20466;-64
2021/10/31 07:29:20;;;;;;;31.33;13.70;;;;;;;9.92;54.27;100597.03;4960768;28;20034;-65
2021/10/31 07:31:47;;;;;;;25.42;11.40;;;;;;;9.85;54.66;100601.66;4954732;28;20460;-66
2021/10/31 07:34:13;;;;;;;27.13;13.88;;;;;;;10.02;54.13;100608.81;4976657;28;20040;-66
2021/10/31 07:36:41;;;;;;;22.48;12.45;;;;;;;9.96;54.20;100598.63;4974887;28;20507;-66
2021/10/31 07:39:09;;;;;;;26.63;12.02;;;;;;;10.30;54.08;100605.84;4980284;28;20038;-66
2021/10/31 07:41:35;;;;;;;20.85;11.70;;;;;;;10.26;53.36;100604.31;4971103;28;20457;-66
2021/10/31 07:44:00;;;;;;;24.80;12.07;;;;;;;10.22;53.80;100600.97;4971005;28;20046;-65
2021/10/31 07:46:26;;;;;;;23.88;13.30;;;;;;;10.05;53.96;100595.63;4976716;28;20512;-65
2021/10/31 07:48:51;;;;;;;24.00;12.00;;;;;;;10.47;53.09;100597.31;4962513;28;20042;-64
2021/10/31 07:51:17;;;;;;;21.67;14.00;;;;;;;10.55;52.58;100587.38;4966009;28;20041;-65
2021/10/31 07:53:43;;;;;;;23.48;13.20;;;;;;;10.35;53.17;100576.94;4950791;28;20031;-65
2021/10/31 07:56:14;;;;;;;24.38;12.73;;;;;;;10.46;53.05;100579.94;4961472;28;20035;-66
2021/10/31 07:58:42;;;;;;;27.55;13.82;;;;;;;10.76;52.51;100579.47;4930875;28;20121;-65
2021/10/31 08:01:11;;;;;;;23.35;13.88;;;;;;;11.04;51.85;100576.47;4962919;28;20352;-65
2021/10/31 08:03:37;;;;;;;29.50;14.32;;;;;;;11.13;51.72;100577.78;4961310;28;20045;-65
2021/10/31 08:06:03;;;;;;;27.38;13.10;;;;;;;10.80;51.49;100570.56;4953551;28;20089;-65
2021/10/31 08:08:28;;;;;;;26.58;13.63;;;;;;;10.78;51.95;100572.41;4961738;28;20055;-65
2021/10/31 08:10:54;;;;;;;27.73;13.85;;;;;;;10.38;52.66;100568.97;4949305;28;20042;-65
2021/10/31 08:13:28;;;;;;;26.48;13.82;;;;;;;10.59;52.48;100573.25;4963736;28;20285;-65
2021/10/31 08:15:55;;;;;;;33.10;15.65;;;;;;;10.82;51.92;100558.31;4944731;28;20495;-64
2021/10/31 08:18:21;;;;;;;27.08;14.73;;;;;;;11.16;52.05;100554.13;4957430;28;20035;-65
2021/10/31 08:20:47;;;;;;;29.77;14.32;;;;;;;11.33;51.17;100559.41;4960428;28;20035;-65
2021/10/31 08:23:15;;;;;;;36.70;15.48;;;;;;;11.11;50.76;100556.13;4955730;28;20046;-65
2021/10/31 08:25:43;;;;;;;29.45;14.70;;;;;;;11.27;50.90;100548.38;4958751;28;20050;-65
2021/10/31 08:28:10;;;;;;;28.60;14.80;;;;;;;11.22;50.95;100552.06;4961849;28;20046;-65
2021/10/31 08:30:36;;;;;;;29.45;12.68;;;;;;;11.21;51.33;100558.19;4943073;28;20038;-65
2021/10/31 08:33:19;;;;;;;27.05;14.77;;;;;;;11.27;51.14;100554.47;4959496;28;20393;-70
2021/10/31 08:35:47;;;;;;;29.45;14.27;;;;;;;10.76;51.90;100554.19;4958248;28;20138;-64
2021/10/31 08:38:13;;;;;;;26.00;14.00;;;;;;;10.74;52.06;100549.94;4964765;28;20109;-65
2021/10/31 08:40:38;;;;;;;26.30;14.07;;;;;;;10.67;52.41;100548.53;4960085;28;20039;-65
2021/10/31 08:43:04;;;;;;;26.85;14.23;;;;;;;10.66;52.14;100552.03;4960862;28;20105;-65
2021/10/31 08:45:32;;;;;;;27.83;13.35;;;;;;;11.24;51.91;100550.22;4959678;28;20161;-64
2021/10/31 08:47:59;;;;;;;28.08;13.00;;;;;;;11.70;51.20;100544.50;4944213;28;20042;-64
2021/10/31 08:50:27;;;;;;;26.52;13.23;;;;;;;11.73;49.92;100539.13;4950482;28;20039;-64
2021/10/31 08:52:55;;;;;;;23.67;11.80;;;;;;;11.14;51.02;100530.66;4960692;28;20411;-65
2021/10/31 08:55:21;;;;;;;21.65;12.18;;;;;;;11.24;50.66;100520.56;4958258;28;20113;-64
2021/10/31 08:57:46;;;;;;;22.40;12.02;;;;;;;10.93;51.61;100522.06;4960798;28;20035;-64
2021/10/31 09:00:12;;;;;;;23.30;11.20;;;;;;;11.08;51.49;100514.41;4959842;28;20030;-64
2021/10/31 09:02:41;;;;;;;21.23;10.88;;;;;;;11.15;51.30;100513.19;4959901;28;20364;-64
2021/10/31 09:05:08;;;;;;;23.52;11.52;;;;;;;11.24;50.63;100508.38;4959768;28;20039;-63
2021/10/31 09:07:36;;;;;;;19.55;10.27;;;;;;;11.12;50.98;100508.09;4966093;28;20102;-65
2021/10/31 09:10:03;;;;;;;15.13;9.40;;;;;;;11.43;50.67;100512.69;4980180;28;20104;-64
2021/10/31 09:12:28;;;;;;;20.25;10.63;;;;;;;11.09;50.56;100513.50;4952428;28;20038;-63
2021/10/31 09:14:56;;;;;;;26.52;11.35;;;;;;;11.08;50.46;100511.78;4979867;28;20049;-64
2021/10/31 09:17:22;;;;;;;21.15;10.57;;;;;;;11.12;50.93;100515.94;4976494;28;20097;-65
2021/10/31 09:19:48;;;;;;;18.77;10.15;;;;;;;11.32;51.17;100507.97;4943196;28;20038;-66
2021/10/31 09:22:16;;;;;;;18.10;9.75;;;;;;;11.93;49.84;100511.94;4962830;28;20402;-66
2021/10/31 09:24:41;;;;;;;18.15;10.02;;;;;;;12.20;48.81;100507.06;4979918;28;20038;-66
2021/10/31 09:27:07;;;;;;;21.92;10.45;;;;;;;11.95;48.80;100509.25;4976994;28;20546;-65
2021/10/31 09:29:32;;;;;;;17.23;9.75;;;;;;;11.77;48.73;100514.47;4979018;28;20034;-65
2021/10/31 09:31:58;;;;;;;16.63;9.73;;;;;;;11.92;48.38;100519.88;4963987;28;20080;-65
2021/10/31 09:34:27;;;;;;;17.77;8.82;;;;;;;11.23;49.88;100524.13;4980062;28;20239;-66
2021/10/31 09:36:52;;;;;;;17.48;8.70;;;;;;;11.87;49.59;100514.88;4977471;28;20156;-64
2021/10/31 09:39:18;;;;;;;14.00;7.47;;;;;;;12.56;47.92;100494.66;4978848;28;20035;-65
2021/10/31 09:41:45;;;;;;;16.05;8.77;;;;;;;12.50;48.01;100487.97;4977902;28;20508;-65
2021/10/31 09:46:45;;;;;;;14.15;8.02;;;;;;;13.29;45.75;100473.97;4980287;28;20546;-65
2021/10/31 09:49:13;;;;;;;16.77;8.02;;;;;;;13.33;44.96;100473.72;4979975;28;20052;-64
2021/10/31 09:51:43;;;;;;;11.35;7.40;;;;;;;13.42;46.38;100467.09;4951201;28;20081;-65
2021/10/31 09:54:16;;;;;;;9.95;6.72;;;;;;;13.47;45.26;100470.31;4941982;28;20042;-65
2021/10/31 09:56:41;;;;;;;14.00;7.80;;;;;;;13.73;45.02;100462.69;4948992;28;20066;-65
2021/10/31 09:59:13;;;;;;;14.98;8.45;;;;;;;13.71;45.49;100454.88;4942367;28;20058;-65
2021/10/31 10:04:35;;;;;;;10.77;6.20;;;;;;;12.75;46.78;100449.97;4959550;28;20571;-65
2021/10/31 10:07:09;;;;;;;12.70;7.50;;;;;;;12.23;47.79;100446.63;4959894;28;20093;-65
2021/10/31 10:09:35;;;;;;;17.98;6.90;;;;;;;11.93;48.67;100454.31;4944346;28;20031;-65
2021/10/31 10:12:14;;;;;;;11.32;7.30;;;;;;;12.45;47.86;100456.78;4993352;23;20443;-69
2021/10/31 10:14:40;;;;;;;12.52;6.95;;;;;;;13.00;45.99;100459.91;4970749;28;20030;-69
2021/10/31 10:17:09;;;;;;;14.18;7.38;;;;;;;13.16;45.95;100463.38;4980001;28;20325;-68
2021/10/31 10:19:57;;;;;;;15.65;7.43;;;;;;;13.52;45.67;100475.28;4979864;28;20030;-69
2021/10/31 10:22:26;;;;;;;11.40;6.63;;;;;;;14.24;44.02;100463.06;4979292;28;20153;-68
2021/10/31 10:24:54;;;;;;;12.30;7.35;;;;;;;13.97;44.89;100472.66;4979452;28;20049;-71
2021/10/31 10:27:25;;;;;;;14.30;7.38;;;;;;;14.19;44.36;100470.41;4976556;28;20507;-67
2021/10/31 10:29:54;;;;;;;12.63;7.20;;;;;;;14.55;42.16;100463.81;4982918;28;20033;-69
2021/10/31 10:32:25;;;;;;;13.73;7.50;;;;;;;14.75;43.61;100459.91;5001233;28;20491;-69
2021/10/31 10:34:56;;;;;;;14.32;7.05;;;;;;;13.34;45.17;100461.47;5002615;28;20088;-67
2021/10/31 10:37:29;;;;;;;14.82;8.43;;;;;;;13.74;45.00;100453.84;4980186;28;20045;-68
2021/10/31 10:39:57;;;;;;;16.63;7.70;;;;;;;14.07;44.81;100450.13;5002538;28;20043;-69
2021/10/31 10:42:29;;;;;;;14.90;7.88;;;;;;;13.28;46.14;100451.31;5000401;28;20054;-67
2021/10/31 10:45:26;;;;;;;18.52;8.98;;;;;;;13.56;44.74;100450.50;4981315;28;20033;-69
2021/10/31 10:47:57;;;;;;;15.38;8.38;;;;;;;12.55;46.83;100446.63;5002143;28;20097;-68
2021/10/31 10:50:28;;;;;;;13.00;8.07;;;;;;;13.19;45.93;100449.22;4998825;28;20546;-68
2021/10/31 10:52:56;;;;;;;15.20;8.13;;;;;;;13.27;46.34;100452.22;4955536;28;20793;-71
2021/10/31 10:55:25;;;;;;;13.52;7.75;;;;;;;13.01;46.53;100456.38;4980911;28;20553;-70
2021/10/31 10:57:58;;;;;;;17.00;7.53;;;;;;;13.01;46.79;100444.09;4963999;28;20034;-69
2021/10/31 11:00:37;;;;;;;17.25;8.38;;;;;;;12.88;46.84;100437.84;4982106;28;20429;-69
2021/10/31 11:03:05;;;;;;;13.18;7.45;;;;;;;13.36;46.76;100438.59;4981969;28;20121;-68
2021/10/31 11:05:39;;;;;;;17.77;9.00;;;;;;;13.51;44.81;100429.78;4964060;28;20105;-73
2021/10/31 11:08:10;;;;;;;19.05;10.73;;;;;;;12.97;46.74;100437.31;4979467;28;20330;-69
2021/10/31 11:10:36;;;;;;;29.38;13.25;;;;;;;13.51;45.20;100421.06;4957089;28;20462;-70
2021/10/31 11:13:05;;;;;;;24.42;12.52;;;;;;;13.17;45.47;100411.72;4964299;28;20041;-69
2021/10/31 11:15:33;;;;;;;24.30;13.77;;;;;;;13.15;46.02;100408.34;4981922;28;20121;-72
2021/10/31 11:18:01;;;;;;;22.80;13.52;;;;;;;13.50;44.98;100403.63;4980315;28;20030;-70
2021/10/31 11:20:32;;;;;;;29.00;14.18;;;;;;;13.71;45.22;100391.84;4958808;28;20081;-68
2021/10/31 11:23:02;;;;;;;23.13;13.87;;;;;;;13.75;44.89;100376.78;4981453;28;20496;-69
2021/10/31 11:25:32;;;;;;;34.20;14.57;;;;;;;13.77;44.45;100358.31;4977963;28;21473;-70